createdAt,value
2023-05-10T00:00:18.547Z,102169.60
2023-05-10T00:03:07.136Z,102168.73
2023-05-10T00:05:35.475Z,102167.39
2023-05-10T00:08:03.599Z,102167.10
2023-05-10T00:10:32.025Z,102168.29
2023-05-10T00:13:00.183Z,102166.47
2023-05-10T00:15:28.354Z,102164.45
2023-05-10T00:17:56.394Z,102165.73
2023-05-10T00:20:24.401Z,102159.92
2023-05-10T00:22:52.520Z,102161.69
2023-05-10T00:25:22.585Z,102162.17
2023-05-10T00:27:50.955Z,102163.35
2023-05-10T00:30:20.202Z,102161.77
2023-05-10T00:32:49.337Z,102157.92
2023-05-10T00:35:17.728Z,102157.84
2023-05-10T00:37:46.255Z,102161.71
2023-05-10T00:40:15.005Z,102161.70
2023-05-10T00:42:44.400Z,102165.54
2023-05-10T00:45:12.751Z,102162.23
2023-05-10T00:47:40.961Z,102161.95
2023-05-10T00:50:10.347Z,102161.43
2023-05-10T00:52:38.481Z,102163.81
2023-05-10T00:55:07.812Z,102159.84
2023-05-10T00:57:36.127Z,102158.63
2023-05-10T01:00:04.884Z,102160.38
2023-05-10T01:02:35.319Z,102158.73
2023-05-10T01:05:07.328Z,102157.78
2023-05-10T01:07:35.434Z,102160.04
2023-05-10T01:10:03.662Z,102159.87
2023-05-10T01:12:31.806Z,102162.55
2023-05-10T01:15:02.123Z,102161.11
2023-05-10T01:17:31.043Z,102157.11
2023-05-10T01:19:59.144Z,102156.21
2023-05-10T01:22:33.194Z,102159.04
2023-05-10T01:25:38.236Z,102156.00
2023-05-10T01:28:18.706Z,102153.27
2023-05-10T01:31:18.047Z,102157.14
2023-05-10T01:34:05.822Z,102154.19
2023-05-10T01:36:44.073Z,102152.89
2023-05-10T01:39:55.644Z,102152.19
2023-05-10T01:42:30.583Z,102150.96
2023-05-10T01:45:28.611Z,102151.86
2023-05-10T01:48:15.194Z,102149.89
2023-05-10T01:50:46.195Z,102147.33
2023-05-10T01:53:19.158Z,102147.04
2023-05-10T01:55:53.706Z,102150.66
2023-05-10T01:58:26.477Z,102150.94
2023-05-10T02:00:55.928Z,102149.88
2023-05-10T02:03:26.508Z,102151.55
2023-05-10T02:05:56.321Z,102147.55
2023-05-10T02:08:25.745Z,102148.41
2023-05-10T02:10:57.280Z,102150.03
2023-05-10T02:13:28.586Z,102148.71
2023-05-10T02:15:58.735Z,102151.39
2023-05-10T02:18:28.865Z,102145.64
2023-05-10T02:20:58.861Z,102146.27
2023-05-10T02:23:27.808Z,102148.66
2023-05-10T02:25:58.046Z,102146.64
2023-05-10T02:28:28.042Z,102145.25
2023-05-10T02:30:57.884Z,102146.29
2023-05-10T02:33:27.916Z,102148.92
2023-05-10T02:35:57.042Z,102151.48
2023-05-10T02:38:26.911Z,102156.70
2023-05-10T02:40:56.666Z,102157.45
2023-05-10T02:43:25.914Z,102159.43
2023-05-10T02:45:54.154Z,102155.59
2023-05-10T02:48:22.368Z,102153.80
2023-05-10T02:50:53.465Z,102157.43
2023-05-10T02:53:29.740Z,102157.41
2023-05-10T02:56:01.931Z,102157.52
2023-05-10T02:58:30.089Z,102157.08
2023-05-10T03:00:58.211Z,102154.03
2023-05-10T03:03:26.330Z,102152.45
2023-05-10T03:05:57.764Z,102154.61
2023-05-10T03:08:26.487Z,102152.60
2023-05-10T03:11:14.932Z,102152.14
2023-05-10T03:14:17.826Z,102153.14
2023-05-10T03:16:58.675Z,102154.32
2023-05-10T03:19:48.596Z,102155.86
2023-05-10T03:22:33.466Z,102156.95
2023-05-10T03:25:07.242Z,102161.89
2023-05-10T03:27:37.686Z,102165.15
2023-05-10T03:30:09.006Z,102162.60
2023-05-10T03:32:38.204Z,102162.98
2023-05-10T03:35:13.498Z,102163.32
2023-05-10T03:37:41.458Z,102166.52
2023-05-10T03:40:11.109Z,102168.44
2023-05-10T03:42:40.294Z,102166.09
2023-05-10T03:45:09.228Z,102169.89
2023-05-10T03:47:37.297Z,102173.90
2023-05-10T03:50:06.584Z,102176.34
2023-05-10T03:52:34.679Z,102177.63
2023-05-10T03:55:04.762Z,102179.61
2023-05-10T03:57:33.332Z,102181.87
2023-05-10T04:00:01.773Z,102182.27
2023-05-10T04:02:31.213Z,102183.48
2023-05-10T04:04:59.391Z,102179.30
2023-05-10T04:07:27.418Z,102183.70
2023-05-10T04:09:55.449Z,102182.31
2023-05-10T04:12:24.067Z,102184.94
2023-05-10T04:14:52.273Z,102179.25
2023-05-10T04:17:20.356Z,102178.69
2023-05-10T04:19:48.414Z,102183.09
2023-05-10T04:22:17.246Z,102180.27
2023-05-10T04:24:45.158Z,102185.29
2023-05-10T04:27:13.177Z,102188.15
2023-05-10T04:29:41.292Z,102190.55
2023-05-10T04:32:11.213Z,102194.48
2023-05-10T04:34:39.357Z,102193.63
2023-05-10T04:37:08.675Z,102194.56
2023-05-10T04:39:36.906Z,102194.15
2023-05-10T04:42:06.876Z,102191.73
2023-05-10T04:44:34.928Z,102190.58
2023-05-10T04:47:04.065Z,102190.52
2023-05-10T04:49:32.067Z,102189.67
2023-05-10T04:52:00.182Z,102192.23
2023-05-10T04:54:28.311Z,102195.52
2023-05-10T04:56:56.327Z,102200.73
2023-05-10T04:59:24.348Z,102200.13
2023-05-10T05:01:52.413Z,102197.42
2023-05-10T05:04:20.591Z,102200.65
2023-05-10T05:06:48.710Z,102197.52
2023-05-10T05:09:17.533Z,102202.27
2023-05-10T05:11:45.554Z,102206.69
2023-05-10T05:14:13.569Z,102203.89
2023-05-10T05:16:41.652Z,102205.28
2023-05-10T05:19:09.811Z,102200.65
2023-05-10T05:21:37.930Z,102200.58
2023-05-10T05:24:06.792Z,102200.80
2023-05-10T05:26:35.070Z,102204.04
2023-05-10T05:29:03.095Z,102201.63
2023-05-10T05:31:31.670Z,102200.36
2023-05-10T05:33:59.642Z,102199.16
2023-05-10T05:36:27.651Z,102198.67
2023-05-10T05:38:56.070Z,102196.48
2023-05-10T05:41:25.697Z,102200.66
2023-05-10T05:43:54.015Z,102201.89
2023-05-10T05:46:22.084Z,102203.07
2023-05-10T05:48:50.159Z,102198.64
2023-05-10T05:51:18.374Z,102207.80
2023-05-10T05:53:46.394Z,102203.44
2023-05-10T05:56:14.617Z,102205.38
2023-05-10T05:58:42.644Z,102199.88
2023-05-10T06:01:10.657Z,102201.17
2023-05-10T06:03:38.782Z,102199.77
2023-05-10T06:06:06.902Z,102198.84
2023-05-10T06:08:35.228Z,102198.69
2023-05-10T06:11:05.166Z,102196.73
2023-05-10T06:13:34.541Z,102197.63
2023-05-10T06:16:04.195Z,102198.89
2023-05-10T06:18:32.614Z,102198.41
2023-05-10T06:21:01.036Z,102191.45
2023-05-10T06:23:29.002Z,102193.10
2023-05-10T06:25:57.074Z,102192.12
2023-05-10T06:28:25.200Z,102192.48
2023-05-10T06:30:53.435Z,102192.14
2023-05-10T06:33:21.554Z,102192.73
2023-05-10T06:35:49.652Z,102195.98
2023-05-10T06:38:17.874Z,102195.98
2023-05-10T06:40:45.910Z,102192.32
2023-05-10T06:43:14.015Z,102193.95
2023-05-10T06:45:42.232Z,102192.84
2023-05-10T06:48:10.422Z,102194.11
2023-05-10T06:50:38.876Z,102189.61
2023-05-10T06:53:06.997Z,102188.70
2023-05-10T06:55:35.015Z,102193.49
2023-05-10T06:58:03.332Z,102195.02
2023-05-10T07:00:31.484Z,102194.29
2023-05-10T07:02:59.866Z,102197.40
2023-05-10T07:05:29.295Z,102200.88
2023-05-10T07:07:57.593Z,102198.58
2023-05-10T07:10:25.847Z,102199.67
2023-05-10T07:12:54.214Z,102200.16
2023-05-10T07:15:22.594Z,102201.29
2023-05-10T07:17:50.749Z,102206.73
2023-05-10T07:20:19.121Z,102208.33
2023-05-10T07:22:47.153Z,102210.88
2023-05-10T07:25:15.366Z,102208.05
2023-05-10T07:27:43.882Z,102207.79
2023-05-10T07:30:12.812Z,102212.66
2023-05-10T07:32:43.019Z,102213.22
2023-05-10T07:35:11.352Z,102217.52
2023-05-10T07:37:39.372Z,102214.00
2023-05-10T07:40:08.408Z,102216.84
2023-05-10T07:42:36.414Z,102219.27
2023-05-10T07:45:05.146Z,102222.13
2023-05-10T07:47:33.195Z,102222.02
2023-05-10T07:50:01.580Z,102221.31
2023-05-10T07:52:29.701Z,102221.58
2023-05-10T07:54:58.116Z,102224.14
2023-05-10T07:57:26.240Z,102225.86
2023-05-10T07:59:54.354Z,102227.34
2023-05-10T08:02:22.417Z,102231.29
2023-05-10T08:04:50.597Z,102232.63
2023-05-10T08:07:18.713Z,102228.86
2023-05-10T08:09:47.539Z,102229.25
2023-05-10T08:12:15.757Z,102228.89
2023-05-10T08:14:44.077Z,102232.10
2023-05-10T08:17:12.297Z,102231.75
2023-05-10T08:19:40.720Z,102229.42
2023-05-10T08:22:08.655Z,102230.30
2023-05-10T08:24:39.480Z,102233.23
2023-05-10T08:27:07.499Z,102234.93
2023-05-10T08:29:49.059Z,102235.70
2023-05-10T08:32:18.677Z,102236.66
2023-05-10T08:34:46.702Z,102237.13
2023-05-10T08:37:14.783Z,102238.73
2023-05-10T08:39:42.941Z,102240.23
2023-05-10T08:42:11.157Z,102239.89
2023-05-10T08:44:39.716Z,102240.44
2023-05-10T08:47:08.498Z,102244.62
2023-05-10T08:49:38.830Z,102247.67
2023-05-10T08:52:08.462Z,102246.27
2023-05-10T08:54:37.681Z,102246.33
2023-05-10T08:57:06.200Z,102246.73
2023-05-10T08:59:34.429Z,102247.95
2023-05-10T09:02:03.204Z,102252.35
2023-05-10T09:04:32.460Z,102248.54
2023-05-10T09:07:00.695Z,102252.39
2023-05-10T09:09:29.412Z,102255.04
2023-05-10T09:11:58.026Z,102253.29
2023-05-10T09:14:27.056Z,102258.39
2023-05-10T09:16:56.484Z,102254.65
2023-05-10T09:19:24.926Z,102258.54
2023-05-10T09:21:52.917Z,102259.80
2023-05-10T09:24:26.063Z,102252.27
2023-05-10T09:26:54.075Z,102256.23
2023-05-10T09:29:23.501Z,102251.40
2023-05-10T09:31:55.445Z,102252.90
2023-05-10T09:34:33.998Z,102257.95
2023-05-10T09:37:05.465Z,102253.48
2023-05-10T09:39:33.653Z,102255.23
2023-05-10T09:42:07.206Z,102259.23
2023-05-10T09:44:36.106Z,102247.91
2023-05-10T09:47:04.823Z,102247.08
2023-05-10T09:49:34.340Z,102242.30
2023-05-10T09:52:07.612Z,102248.02
2023-05-10T09:54:36.322Z,102243.80
2023-05-10T09:57:04.552Z,102243.67
2023-05-10T09:59:35.981Z,102239.42
2023-05-10T10:02:04.526Z,102239.39
2023-05-10T10:04:33.109Z,102239.70
2023-05-10T10:07:03.850Z,102238.27
2023-05-10T10:09:33.175Z,102238.80
2023-05-10T10:12:03.063Z,102242.04
2023-05-10T10:14:31.544Z,102241.38
2023-05-10T10:19:36.597Z,102240.88
2023-05-10T10:22:05.721Z,102238.48
2023-05-10T10:24:34.127Z,102238.88
2023-05-10T10:27:16.797Z,102232.62
2023-05-10T10:30:10.202Z,102234.54
2023-05-10T10:33:13.556Z,102235.52
2023-05-10T10:35:55.217Z,102235.88
2023-05-10T10:38:24.037Z,102234.41
2023-05-10T10:41:11.095Z,102235.11
2023-05-10T10:43:39.149Z,102231.93
2023-05-10T10:46:18.773Z,102226.83
2023-05-10T10:49:09.201Z,102229.59
2023-05-10T10:51:40.984Z,102229.41
2023-05-10T10:54:13.083Z,102232.17
2023-05-10T10:56:41.088Z,102229.52
2023-05-10T10:59:09.512Z,102225.98
2023-05-10T11:01:37.624Z,102231.48
2023-05-10T11:04:05.789Z,102231.02
2023-05-10T11:06:36.819Z,102231.44
2023-05-10T11:09:13.493Z,102233.77
2023-05-10T11:11:56.314Z,102233.27
2023-05-10T11:14:25.422Z,102233.65
2023-05-10T11:16:53.653Z,102238.17
2023-05-10T11:19:21.666Z,102235.98
2023-05-10T11:22:12.354Z,102239.30
2023-05-10T11:24:40.787Z,102237.00
2023-05-10T11:27:09.299Z,102237.28
2023-05-10T11:29:37.330Z,102235.33
2023-05-10T11:32:09.259Z,102234.95
2023-05-10T11:34:37.388Z,102236.95
2023-05-10T11:37:05.393Z,102241.59
2023-05-10T11:39:34.607Z,102242.27
2023-05-10T11:42:03.045Z,102239.83
2023-05-10T11:44:32.657Z,102234.83
2023-05-10T11:47:02.396Z,102234.52
2023-05-10T11:49:31.192Z,102230.31
2023-05-10T11:52:09.405Z,102225.27
2023-05-10T11:54:37.489Z,102225.81
2023-05-10T11:57:05.509Z,102225.98
2023-05-10T11:59:33.633Z,102228.66
2023-05-10T12:02:02.061Z,102230.45
2023-05-10T12:04:31.342Z,102228.29
2023-05-10T12:06:59.796Z,102228.38
2023-05-10T12:09:42.475Z,102229.52
2023-05-10T12:12:17.408Z,102225.20
2023-05-10T12:14:50.245Z,102228.92
2023-05-10T12:17:18.264Z,102228.36
2023-05-10T12:19:46.294Z,102227.38
2023-05-10T12:22:14.403Z,102234.41
2023-05-10T12:24:42.421Z,102230.14
2023-05-10T12:27:10.436Z,102233.30
2023-05-10T12:29:45.652Z,102230.64
2023-05-10T12:32:13.843Z,102225.22
2023-05-10T12:34:41.938Z,102223.17
2023-05-10T12:37:10.095Z,102220.09
2023-05-10T12:39:45.869Z,102219.45
2023-05-10T12:42:14.016Z,102221.25
2023-05-10T12:44:42.036Z,102216.82
2023-05-10T12:47:10.065Z,102216.65
2023-05-10T12:49:38.177Z,102216.48
2023-05-10T12:52:06.312Z,102218.94
2023-05-10T12:54:34.322Z,102219.67
2023-05-10T12:57:02.334Z,102215.24
2023-05-10T12:59:30.358Z,102212.88
2023-05-10T13:01:58.990Z,102211.40
2023-05-10T13:04:27.065Z,102212.05
2023-05-10T13:06:59.910Z,102208.60
2023-05-10T13:09:30.507Z,102204.91
2023-05-10T13:11:58.904Z,102205.80
2023-05-10T13:14:27.845Z,102210.27
2023-05-10T13:16:55.999Z,102209.54
2023-05-10T13:19:24.045Z,102207.12
2023-05-10T13:21:52.063Z,102205.90
2023-05-10T13:24:20.382Z,102201.96
2023-05-10T13:26:48.301Z,102200.56
2023-05-10T13:29:18.530Z,102198.92
2023-05-10T13:31:46.882Z,102194.35
2023-05-10T13:34:14.928Z,102191.38
2023-05-10T13:36:43.189Z,102186.95
2023-05-10T13:39:11.204Z,102187.66
2023-05-10T13:41:39.540Z,102186.18
2023-05-10T13:44:07.451Z,102187.34
2023-05-10T13:46:35.934Z,102186.13
2023-05-10T13:49:04.002Z,102182.20
2023-05-10T13:51:32.834Z,102184.23
2023-05-10T13:54:00.935Z,102179.67
2023-05-10T13:56:29.056Z,102182.15
2023-05-10T13:59:00.590Z,102182.17
2023-05-10T14:01:28.890Z,102185.88
2023-05-10T14:03:57.157Z,102188.95
2023-05-10T14:06:25.247Z,102188.04
2023-05-10T14:08:53.568Z,102185.91
2023-05-10T14:11:23.282Z,102185.04
2023-05-10T14:13:52.516Z,102188.54
2023-05-10T14:16:21.413Z,102189.45
2023-05-10T14:18:49.724Z,102185.38
2023-05-10T14:21:18.079Z,102185.00
2023-05-10T14:23:45.999Z,102186.15
2023-05-10T14:26:14.017Z,102185.20
2023-05-10T14:28:42.169Z,102181.94
2023-05-10T14:31:10.257Z,102186.48
2023-05-10T14:33:38.280Z,102183.85
2023-05-10T14:36:07.327Z,102182.46
2023-05-10T14:38:35.525Z,102184.48
2023-05-10T14:41:03.655Z,102178.44
2023-05-10T14:43:32.218Z,102183.66
2023-05-10T14:46:00.408Z,102180.55
2023-05-10T14:48:28.602Z,102181.09
2023-05-10T14:50:56.922Z,102179.03
2023-05-10T14:53:24.842Z,102182.02
2023-05-10T14:55:53.474Z,102184.77
2023-05-10T14:58:21.483Z,102180.61
2023-05-10T15:00:49.916Z,102180.99
2023-05-10T15:03:18.553Z,102184.51
2023-05-10T15:05:47.658Z,102183.95
2023-05-10T15:08:15.662Z,102184.52
2023-05-10T15:10:44.109Z,102187.20
2023-05-10T15:13:11.941Z,102182.95
2023-05-10T15:15:40.037Z,102181.71
2023-05-10T15:18:08.091Z,102182.20
2023-05-10T15:20:36.264Z,102182.55
2023-05-10T15:23:04.384Z,102182.61
2023-05-10T15:25:35.417Z,102180.60
2023-05-10T15:28:04.313Z,102177.92
2023-05-10T15:30:32.478Z,102182.52
2023-05-10T15:33:00.629Z,102183.81
2023-05-10T15:35:29.001Z,102186.20
2023-05-10T15:37:57.031Z,102182.67
2023-05-10T15:40:25.042Z,102179.12
2023-05-10T15:42:53.170Z,102180.13
2023-05-10T15:45:21.477Z,102183.49
2023-05-10T15:47:49.517Z,102181.09
2023-05-10T15:50:17.823Z,102179.17
2023-05-10T15:52:45.942Z,102182.89
2023-05-10T15:55:14.433Z,102183.80
2023-05-10T15:57:43.951Z,102183.13
2023-05-10T16:00:13.423Z,102180.64
2023-05-10T16:02:42.273Z,102180.60
2023-05-10T16:05:11.166Z,102181.13
2023-05-10T16:07:40.409Z,102180.94
2023-05-10T16:10:10.621Z,102181.33
2023-05-10T16:12:39.431Z,102183.96
2023-05-10T16:15:08.941Z,102185.77
2023-05-10T16:17:37.698Z,102181.85
2023-05-10T16:20:07.106Z,102179.52
2023-05-10T16:22:36.033Z,102183.63
2023-05-10T16:25:04.750Z,102184.52
2023-05-10T16:27:33.741Z,102185.94
2023-05-10T16:30:02.214Z,102186.76
2023-05-10T16:32:30.430Z,102189.83
2023-05-10T16:34:59.536Z,102195.00
2023-05-10T16:37:28.361Z,102198.21
2023-05-10T16:39:56.394Z,102197.38
2023-05-10T16:42:25.303Z,102198.21
2023-05-10T16:44:54.762Z,102198.81
2023-05-10T16:47:23.426Z,102201.04
2023-05-10T16:49:51.667Z,102199.98
2023-05-10T16:52:19.697Z,102200.75
2023-05-10T16:54:47.706Z,102197.73
2023-05-10T16:57:15.924Z,102197.98
2023-05-10T16:59:44.047Z,102196.52
2023-05-10T17:02:12.685Z,102197.36
2023-05-10T17:04:42.898Z,102201.09
2023-05-10T17:07:11.218Z,102205.89
2023-05-10T17:09:40.137Z,102207.31
2023-05-10T17:12:08.274Z,102207.34
2023-05-10T17:14:38.242Z,102209.23
2023-05-10T17:17:07.055Z,102206.85
2023-05-10T17:19:35.125Z,102205.87
2023-05-10T17:22:03.149Z,102204.69
2023-05-10T17:24:31.368Z,102207.77
2023-05-10T17:27:00.819Z,102208.14
2023-05-10T17:29:29.337Z,102205.44
2023-05-10T17:31:57.490Z,102206.59
2023-05-10T17:34:25.653Z,102204.15
2023-05-10T17:36:53.871Z,102205.11
2023-05-10T17:39:21.909Z,102207.32
2023-05-10T17:41:50.013Z,102217.30
2023-05-10T17:44:18.034Z,102221.83
2023-05-10T17:46:46.055Z,102221.66
2023-05-10T17:49:14.190Z,102224.14
2023-05-10T17:51:44.207Z,102228.02
2023-05-10T17:54:12.315Z,102228.55
2023-05-10T17:56:41.087Z,102234.33
2023-05-10T17:59:09.164Z,102237.44
2023-05-10T18:01:37.330Z,102237.21
2023-05-10T18:04:06.291Z,102246.11
2023-05-10T18:06:38.358Z,102243.35
2023-05-10T18:09:07.411Z,102247.85
2023-05-10T18:11:36.876Z,102250.16
2023-05-10T18:14:04.918Z,102256.58
2023-05-10T18:16:33.036Z,102259.00
2023-05-10T18:19:01.282Z,102260.92
2023-05-10T18:21:29.461Z,102262.25
2023-05-10T18:23:57.775Z,102267.20
2023-05-10T18:26:26.403Z,102265.27
2023-05-10T18:28:54.334Z,102268.00
2023-05-10T18:31:22.469Z,102268.39
2023-05-10T18:33:50.677Z,102266.05
2023-05-10T18:36:18.682Z,102266.08
2023-05-10T18:38:46.803Z,102270.09
2023-05-10T18:41:15.246Z,102270.89
2023-05-10T18:43:43.443Z,102274.14
2023-05-10T18:46:11.504Z,102275.20
2023-05-10T18:48:40.815Z,102275.16
2023-05-10T18:51:09.008Z,102281.34
2023-05-10T18:53:37.334Z,102281.73
2023-05-10T18:56:05.849Z,102279.98
2023-05-10T18:58:35.910Z,102281.10
2023-05-10T19:01:04.204Z,102282.52
2023-05-10T19:03:32.219Z,102278.17
2023-05-10T19:06:00.541Z,102280.92
2023-05-10T19:08:28.658Z,102281.20
2023-05-10T19:10:56.677Z,102284.19
2023-05-10T19:13:24.998Z,102283.94
2023-05-10T19:16:11.238Z,102287.30
2023-05-10T19:18:40.210Z,102285.95
2023-05-10T19:21:10.735Z,102290.61
2023-05-10T19:23:40.396Z,102287.32
2023-05-10T19:26:10.913Z,102289.66
2023-05-10T19:28:39.112Z,102283.07
2023-05-10T19:31:07.576Z,102282.09
2023-05-10T19:33:36.255Z,102279.46
2023-05-10T19:36:04.610Z,102279.30
2023-05-10T19:38:33.890Z,102272.64
2023-05-10T19:41:02.037Z,102280.19
2023-05-10T19:43:34.239Z,102278.16
2023-05-10T19:46:03.575Z,102278.39
2023-05-10T19:48:32.300Z,102276.40
2023-05-10T19:51:01.618Z,102278.52
2023-05-10T19:53:30.367Z,102277.52
2023-05-10T19:56:06.449Z,102275.17
2023-05-10T19:58:34.511Z,102272.95
2023-05-10T20:01:02.802Z,102281.30
2023-05-10T20:03:31.076Z,102276.88
2023-05-10T20:05:59.280Z,102274.89
2023-05-10T20:08:27.807Z,102270.85
2023-05-10T20:10:59.233Z,102272.38
2023-05-10T20:13:27.357Z,102271.66
2023-05-10T20:15:57.074Z,102273.60
2023-05-10T20:18:26.328Z,102270.00
2023-05-10T20:20:56.170Z,102270.14
2023-05-10T20:23:24.434Z,102270.66
2023-05-10T20:25:52.957Z,102271.44
2023-05-10T20:28:23.199Z,102266.88
2023-05-10T20:30:54.027Z,102266.27
2023-05-10T20:33:23.035Z,102264.83
2023-05-10T20:35:52.561Z,102263.46
2023-05-10T20:38:21.599Z,102262.90
2023-05-10T20:40:49.602Z,102266.35
2023-05-10T20:43:18.952Z,102266.55
2023-05-10T20:45:47.768Z,102266.39
2023-05-10T20:48:16.094Z,102265.48
2023-05-10T20:50:44.090Z,102263.95
2023-05-10T20:53:12.111Z,102267.23
2023-05-10T20:55:40.231Z,102267.23
2023-05-10T20:58:08.249Z,102271.14
2023-05-10T21:00:36.271Z,102270.54
2023-05-10T21:03:04.796Z,102269.83
2023-05-10T21:05:32.829Z,102269.57
2023-05-10T21:08:00.932Z,102270.18
2023-05-10T21:10:28.944Z,102270.80
2023-05-10T21:12:57.070Z,102267.30
2023-05-10T21:15:25.792Z,102267.36
2023-05-10T21:17:54.569Z,102269.71
2023-05-10T21:20:23.643Z,102264.20
2023-05-10T21:22:51.772Z,102260.23
2023-05-10T21:25:19.781Z,102263.13
2023-05-10T21:27:47.994Z,102261.46
2023-05-10T21:30:16.421Z,102261.38
2023-05-10T21:32:44.652Z,102261.41
2023-05-10T21:35:12.701Z,102261.84
2023-05-10T21:37:40.783Z,102258.86
2023-05-10T21:40:09.505Z,102255.64
2023-05-10T21:42:37.525Z,102259.47
2023-05-10T21:45:06.245Z,102259.20
2023-05-10T21:47:34.200Z,102253.94
2023-05-10T21:50:02.288Z,102256.72
2023-05-10T21:52:30.302Z,102256.83
2023-05-10T21:54:58.326Z,102258.30
2023-05-10T21:57:26.548Z,102259.67
2023-05-10T21:59:54.574Z,102255.85
